Huvudsida
METAR-TAF:

METAR-TAF

Flygplatser :

Karlstad Airport

Karlstad, Sverige

latitud: 59-26-41N, longitud: 013-20-15E, höjd: 107 m

Aktuellt väderrapport

Denna rapport gjordes för 18 minuter sedan, klockan 05:50 UTC
Vind 7 kt från syd
Temperatur 8°C
Fuktighet 93%
Tryck 1032 hPa
Sikt 10 km eller mer
Brutna moln på en höjd av 1800 ft

METAR: ESOK 160550Z 18007KT 9999 BKN018 08/07 Q1032

Tid: 07:08 (06:08 UTC)

Väderprognos

Denna rapport gjordes för 38 minuter sedan, klockan 05:30 UTC
Prognos gäller från 16 kl. 06 UTC till 16 kl. 15 UTC
Vind 7 kt från syd
Sikt 10 km eller mer
Få moln på en höjd av 700 ft
Brutna moln på en höjd av 1500 ft
Temporärt
från 16 kl. 06 UTC till 16 kl. 09 UTC
Brutna moln på en höjd av 900 ft

TAF: ESOK 160530Z 1606/1615 19007KT 9999 FEW007 BKN015 TEMPO 1606/1609 BKN009

Aktuella väderrapporter och prognoser från 4000 flygplatser (METAR- och TAF-rapporter).

De tillgängliga stationerna syns som gula och röda prickar på kartan.

För musen över prickarna för att se namnen på stationerna.

Klicka sedan för att få väderrapporter och prognoser.

För att ändra kartan: Klicka på de gröna knapparna med ett svart kors på för att zooma in; den gröna knappen med ett streck på för att zooma ut; eller på de gröna pilarna för angränsande kartor.


METAR-TAF: